Terminal Aerodrome Forecast
Issued by NWS

Home | Current Version | Previous Version | Text Only | Print | Product List | Glossary On
Versions: 1 2 3 4 5 6 7 8 9 10 11 12 13 14 15 16 17 18 19 20
119
FTUS41 KPBZ 270527
TAFZZV
TAF
KZZV 270527Z 2706/2806 15003KT P6SM SCT250
     FM272000 26005KT P6SM VCTS BKN040CB
     FM280300 21003KT P6SM OVC025=

USA.gov is the U.S. government's official web portal to all federal, state and local government web resources and services.